sensor_id;sensor_type;location;lat;lon;timestamp;P1;durP1;ratioP1;P2;durP2;ratioP2
41394;SDS011;27136;53.810;8.886;2022-07-29T00:01:06;4.35;;;2.15;;
41394;SDS011;27136;53.810;8.886;2022-07-29T00:03:31;2.75;;;1.60;;
41394;SDS011;27136;53.810;8.886;2022-07-29T00:05:57;4.30;;;1.67;;
41394;SDS011;27136;53.810;8.886;2022-07-29T00:08:23;2.45;;;1.60;;
41394;SDS011;27136;53.810;8.886;2022-07-29T00:10:48;2.45;;;1.60;;
41394;SDS011;27136;53.810;8.886;2022-07-29T00:13:14;2.90;;;1.88;;
41394;SDS011;27136;53.810;8.886;2022-07-29T00:15:40;2.88;;;1.75;;
41394;SDS011;27136;53.810;8.886;2022-07-29T00:18:05;4.93;;;1.90;;
41394;SDS011;27136;53.810;8.886;2022-07-29T00:20:31;3.60;;;1.88;;
41394;SDS011;27136;53.810;8.886;2022-07-29T00:22:57;4.13;;;1.75;;
41394;SDS011;27136;53.810;8.886;2022-07-29T00:25:22;4.45;;;1.75;;
41394;SDS011;27136;53.810;8.886;2022-07-29T00:27:48;6.90;;;2.05;;
41394;SDS011;27136;53.810;8.886;2022-07-29T00:30:13;4.25;;;2.00;;
41394;SDS011;27136;53.810;8.886;2022-07-29T00:32:39;5.35;;;2.63;;
41394;SDS011;27136;53.810;8.886;2022-07-29T00:35:05;3.83;;;2.35;;
41394;SDS011;27136;53.810;8.886;2022-07-29T00:37:50;4.32;;;1.90;;
41394;SDS011;27136;53.810;8.886;2022-07-29T00:40:16;4.80;;;2.70;;
41394;SDS011;27136;53.810;8.886;2022-07-29T00:42:45;7.57;;;1.90;;
41394;SDS011;27136;53.810;8.886;2022-07-29T00:45:12;4.15;;;1.98;;
41394;SDS011;27136;53.810;8.886;2022-07-29T00:47:38;4.13;;;2.00;;
41394;SDS011;27136;53.810;8.886;2022-07-29T00:50:04;4.95;;;2.15;;
41394;SDS011;27136;53.810;8.886;2022-07-29T00:52:31;3.10;;;1.75;;
41394;SDS011;27136;53.810;8.886;2022-07-29T00:54:58;3.75;;;1.85;;
41394;SDS011;27136;53.810;8.886;2022-07-29T00:57:24;5.05;;;2.42;;
41394;SDS011;27136;53.810;8.886;2022-07-29T00:59:49;4.18;;;1.90;;
41394;SDS011;27136;53.810;8.886;2022-07-29T01:02:15;4.13;;;2.15;;
41394;SDS011;27136;53.810;8.886;2022-07-29T01:04:41;7.18;;;2.03;;
41394;SDS011;27136;53.810;8.886;2022-07-29T01:07:06;4.05;;;2.42;;
41394;SDS011;27136;53.810;8.886;2022-07-29T01:09:32;4.15;;;1.92;;
41394;SDS011;27136;53.810;8.886;2022-07-29T01:11:59;3.53;;;2.00;;
41394;SDS011;27136;53.810;8.886;2022-07-29T01:14:26;5.55;;;2.10;;
41394;SDS011;27136;53.810;8.886;2022-07-29T01:17:00;3.85;;;2.08;;
41394;SDS011;27136;53.810;8.886;2022-07-29T01:25:30;4.30;;;2.10;;
41394;SDS011;27136;53.810;8.886;2022-07-29T01:31:24;3.67;;;2.13;;
41394;SDS011;27136;53.810;8.886;2022-07-29T01:36:37;5.35;;;2.70;;
41394;SDS011;27136;53.810;8.886;2022-07-29T01:39:10;4.10;;;2.40;;
41394;SDS011;27136;53.810;8.886;2022-07-29T01:41:46;3.78;;;2.40;;
41394;SDS011;27136;53.810;8.886;2022-07-29T01:44:20;4.55;;;2.50;;
41394;SDS011;27136;53.810;8.886;2022-07-29T01:46:56;4.60;;;2.58;;
41394;SDS011;27136;53.810;8.886;2022-07-29T01:49:26;4.47;;;2.45;;
41394;SDS011;27136;53.810;8.886;2022-07-29T01:51:57;3.42;;;2.30;;
41394;SDS011;27136;53.810;8.886;2022-07-29T01:54:28;6.43;;;3.08;;
41394;SDS011;27136;53.810;8.886;2022-07-29T01:57:00;4.50;;;2.53;;
41394;SDS011;27136;53.810;8.886;2022-07-29T02:01:54;4.85;;;2.78;;
41394;SDS011;27136;53.810;8.886;2022-07-29T02:04:23;5.05;;;2.50;;
41394;SDS011;27136;53.810;8.886;2022-07-29T02:06:50;3.78;;;1.90;;
41394;SDS011;27136;53.810;8.886;2022-07-29T02:09:18;9.20;;;2.63;;
41394;SDS011;27136;53.810;8.886;2022-07-29T02:11:47;5.32;;;2.53;;
41394;SDS011;27136;53.810;8.886;2022-07-29T02:14:15;3.92;;;1.83;;
41394;SDS011;27136;53.810;8.886;2022-07-29T02:16:44;3.03;;;2.30;;
41394;SDS011;27136;53.810;8.886;2022-07-29T02:19:11;2.88;;;2.08;;
41394;SDS011;27136;53.810;8.886;2022-07-29T02:21:39;4.97;;;2.20;;
41394;SDS011;27136;53.810;8.886;2022-07-29T02:24:07;4.55;;;1.85;;
41394;SDS011;27136;53.810;8.886;2022-07-29T02:26:36;4.88;;;2.05;;
41394;SDS011;27136;53.810;8.886;2022-07-29T02:29:03;3.42;;;2.47;;
41394;SDS011;27136;53.810;8.886;2022-07-29T02:31:30;4.38;;;2.13;;
41394;SDS011;27136;53.810;8.886;2022-07-29T02:33:59;4.95;;;2.13;;
41394;SDS011;27136;53.810;8.886;2022-07-29T02:36:26;6.03;;;2.28;;
41394;SDS011;27136;53.810;8.886;2022-07-29T02:38:53;3.15;;;2.03;;
41394;SDS011;27136;53.810;8.886;2022-07-29T02:41:23;4.30;;;2.22;;
41394;SDS011;27136;53.810;8.886;2022-07-29T02:43:57;5.07;;;2.08;;
41394;SDS011;27136;53.810;8.886;2022-07-29T02:46:29;4.90;;;2.20;;
41394;SDS011;27136;53.810;8.886;2022-07-29T02:49:07;4.78;;;2.28;;
41394;SDS011;27136;53.810;8.886;2022-07-29T02:54:33;3.95;;;1.95;;
41394;SDS011;27136;53.810;8.886;2022-07-29T02:57:26;4.13;;;1.85;;
41394;SDS011;27136;53.810;8.886;2022-07-29T02:59:58;4.57;;;2.20;;
41394;SDS011;27136;53.810;8.886;2022-07-29T03:02:29;3.95;;;2.10;;
41394;SDS011;27136;53.810;8.886;2022-07-29T03:05:00;3.33;;;1.85;;
41394;SDS011;27136;53.810;8.886;2022-07-29T03:07:27;3.38;;;1.77;;
41394;SDS011;27136;53.810;8.886;2022-07-29T03:09:53;7.40;;;2.30;;
41394;SDS011;27136;53.810;8.886;2022-07-29T03:12:20;4.53;;;2.03;;
41394;SDS011;27136;53.810;8.886;2022-07-29T03:14:46;3.22;;;1.77;;
41394;SDS011;27136;53.810;8.886;2022-07-29T03:17:13;4.85;;;2.20;;
41394;SDS011;27136;53.810;8.886;2022-07-29T03:19:39;3.25;;;1.90;;
41394;SDS011;27136;53.810;8.886;2022-07-29T03:22:05;4.45;;;2.30;;
41394;SDS011;27136;53.810;8.886;2022-07-29T03:24:32;5.18;;;2.30;;
41394;SDS011;27136;53.810;8.886;2022-07-29T03:27:01;5.88;;;2.60;;
41394;SDS011;27136;53.810;8.886;2022-07-29T03:29:28;5.95;;;2.58;;
41394;SDS011;27136;53.810;8.886;2022-07-29T03:31:54;3.95;;;2.40;;
41394;SDS011;27136;53.810;8.886;2022-07-29T03:34:20;4.35;;;2.50;;
41394;SDS011;27136;53.810;8.886;2022-07-29T03:36:45;5.75;;;3.05;;
41394;SDS011;27136;53.810;8.886;2022-07-29T03:39:11;5.13;;;2.78;;
41394;SDS011;27136;53.810;8.886;2022-07-29T03:41:47;3.80;;;2.53;;
41394;SDS011;27136;53.810;8.886;2022-07-29T03:44:15;4.50;;;3.10;;
41394;SDS011;27136;53.810;8.886;2022-07-29T03:49:09;6.13;;;3.17;;
41394;SDS011;27136;53.810;8.886;2022-07-29T03:51:36;7.68;;;3.20;;
41394;SDS011;27136;53.810;8.886;2022-07-29T03:54:02;4.30;;;2.80;;
41394;SDS011;27136;53.810;8.886;2022-07-29T03:56:29;7.30;;;3.17;;
41394;SDS011;27136;53.810;8.886;2022-07-29T03:58:57;5.65;;;2.65;;
41394;SDS011;27136;53.810;8.886;2022-07-29T04:01:23;3.38;;;2.65;;
41394;SDS011;27136;53.810;8.886;2022-07-29T04:03:51;6.90;;;2.72;;
41394;SDS011;27136;53.810;8.886;2022-07-29T04:06:16;6.22;;;2.88;;
41394;SDS011;27136;53.810;8.886;2022-07-29T04:08:42;5.63;;;2.95;;
41394;SDS011;27136;53.810;8.886;2022-07-29T04:11:07;8.55;;;2.50;;
41394;SDS011;27136;53.810;8.886;2022-07-29T04:13:33;8.07;;;2.92;;
41394;SDS011;27136;53.810;8.886;2022-07-29T04:15:59;4.55;;;2.15;;
41394;SDS011;27136;53.810;8.886;2022-07-29T04:18:24;4.47;;;2.58;;
41394;SDS011;27136;53.810;8.886;2022-07-29T04:20:50;5.03;;;2.50;;
41394;SDS011;27136;53.810;8.886;2022-07-29T04:23:16;6.03;;;2.53;;
41394;SDS011;27136;53.810;8.886;2022-07-29T04:25:41;6.80;;;2.22;;
41394;SDS011;27136;53.810;8.886;2022-07-29T04:28:08;4.28;;;2.50;;
41394;SDS011;27136;53.810;8.886;2022-07-29T04:30:34;5.10;;;2.80;;
41394;SDS011;27136;53.810;8.886;2022-07-29T04:33:01;4.30;;;2.42;;
41394;SDS011;27136;53.810;8.886;2022-07-29T04:35:28;7.78;;;2.90;;
41394;SDS011;27136;53.810;8.886;2022-07-29T04:37:54;4.10;;;2.45;;
41394;SDS011;27136;53.810;8.886;2022-07-29T04:40:20;6.15;;;2.38;;
41394;SDS011;27136;53.810;8.886;2022-07-29T04:42:45;3.75;;;2.00;;
41394;SDS011;27136;53.810;8.886;2022-07-29T04:45:11;3.95;;;2.10;;
41394;SDS011;27136;53.810;8.886;2022-07-29T04:47:37;4.63;;;2.47;;
41394;SDS011;27136;53.810;8.886;2022-07-29T04:50:03;5.43;;;2.58;;
41394;SDS011;27136;53.810;8.886;2022-07-29T04:52:30;6.10;;;2.58;;
41394;SDS011;27136;53.810;8.886;2022-07-29T04:54:55;6.00;;;2.50;;
41394;SDS011;27136;53.810;8.886;2022-07-29T04:57:21;4.15;;;2.28;;
41394;SDS011;27136;53.810;8.886;2022-07-29T04:59:46;3.70;;;2.05;;
41394;SDS011;27136;53.810;8.886;2022-07-29T05:02:12;4.78;;;2.42;;
41394;SDS011;27136;53.810;8.886;2022-07-29T05:04:37;5.10;;;2.45;;
41394;SDS011;27136;53.810;8.886;2022-07-29T05:07:03;3.80;;;2.20;;
41394;SDS011;27136;53.810;8.886;2022-07-29T05:09:28;4.40;;;2.10;;
41394;SDS011;27136;53.810;8.886;2022-07-29T05:11:54;4.15;;;2.00;;
41394;SDS011;27136;53.810;8.886;2022-07-29T05:14:19;4.35;;;2.10;;
41394;SDS011;27136;53.810;8.886;2022-07-29T05:16:45;3.88;;;2.08;;
41394;SDS011;27136;53.810;8.886;2022-07-29T05:19:10;2.63;;;1.85;;
41394;SDS011;27136;53.810;8.886;2022-07-29T05:21:36;3.53;;;2.13;;
41394;SDS011;27136;53.810;8.886;2022-07-29T05:24:02;4.32;;;2.10;;
41394;SDS011;27136;53.810;8.886;2022-07-29T05:26:27;5.28;;;2.60;;
41394;SDS011;27136;53.810;8.886;2022-07-29T05:28:53;8.23;;;2.72;;
41394;SDS011;27136;53.810;8.886;2022-07-29T05:31:19;3.67;;;2.08;;
41394;SDS011;27136;53.810;8.886;2022-07-29T05:33:44;2.88;;;2.00;;
41394;SDS011;27136;53.810;8.886;2022-07-29T05:36:10;5.38;;;2.10;;
41394;SDS011;27136;53.810;8.886;2022-07-29T05:38:36;6.07;;;2.55;;
41394;SDS011;27136;53.810;8.886;2022-07-29T05:41:02;4.47;;;2.15;;
41394;SDS011;27136;53.810;8.886;2022-07-29T05:43:28;5.55;;;2.40;;
41394;SDS011;27136;53.810;8.886;2022-07-29T05:45:54;3.78;;;2.22;;
41394;SDS011;27136;53.810;8.886;2022-07-29T05:48:20;6.85;;;2.13;;
41394;SDS011;27136;53.810;8.886;2022-07-29T05:50:45;4.22;;;2.47;;
41394;SDS011;27136;53.810;8.886;2022-07-29T05:53:11;5.45;;;2.70;;
41394;SDS011;27136;53.810;8.886;2022-07-29T05:55:36;5.45;;;2.75;;
41394;SDS011;27136;53.810;8.886;2022-07-29T05:58:02;5.88;;;2.28;;
41394;SDS011;27136;53.810;8.886;2022-07-29T06:00:27;4.65;;;2.17;;
41394;SDS011;27136;53.810;8.886;2022-07-29T06:02:53;4.40;;;2.28;;
41394;SDS011;27136;53.810;8.886;2022-07-29T06:05:18;4.18;;;2.17;;
41394;SDS011;27136;53.810;8.886;2022-07-29T06:07:44;8.05;;;2.50;;
41394;SDS011;27136;53.810;8.886;2022-07-29T06:10:10;4.55;;;2.30;;
41394;SDS011;27136;53.810;8.886;2022-07-29T06:12:35;6.45;;;2.03;;
41394;SDS011;27136;53.810;8.886;2022-07-29T06:15:01;5.38;;;2.58;;
41394;SDS011;27136;53.810;8.886;2022-07-29T06:17:26;6.22;;;2.50;;
41394;SDS011;27136;53.810;8.886;2022-07-29T06:19:52;3.97;;;2.13;;
41394;SDS011;27136;53.810;8.886;2022-07-29T06:22:18;4.15;;;2.35;;
41394;SDS011;27136;53.810;8.886;2022-07-29T06:24:44;4.45;;;2.53;;
41394;SDS011;27136;53.810;8.886;2022-07-29T06:27:10;6.20;;;2.70;;
41394;SDS011;27136;53.810;8.886;2022-07-29T06:29:36;6.13;;;2.63;;
41394;SDS011;27136;53.810;8.886;2022-07-29T06:32:02;5.57;;;2.78;;
41394;SDS011;27136;53.810;8.886;2022-07-29T06:34:28;4.20;;;2.40;;
41394;SDS011;27136;53.810;8.886;2022-07-29T06:36:53;4.88;;;2.25;;
41394;SDS011;27136;53.810;8.886;2022-07-29T06:39:19;4.85;;;2.45;;
41394;SDS011;27136;53.810;8.886;2022-07-29T06:41:49;3.85;;;2.47;;
41394;SDS011;27136;53.810;8.886;2022-07-29T06:44:15;5.22;;;2.30;;
41394;SDS011;27136;53.810;8.886;2022-07-29T06:46:41;4.75;;;2.50;;
41394;SDS011;27136;53.810;8.886;2022-07-29T06:49:07;7.68;;;2.70;;
41394;SDS011;27136;53.810;8.886;2022-07-29T06:51:33;5.35;;;2.60;;
41394;SDS011;27136;53.810;8.886;2022-07-29T06:53:59;4.47;;;2.40;;
41394;SDS011;27136;53.810;8.886;2022-07-29T06:56:25;5.40;;;2.28;;
41394;SDS011;27136;53.810;8.886;2022-07-29T06:58:51;5.07;;;2.55;;
41394;SDS011;27136;53.810;8.886;2022-07-29T07:01:16;3.83;;;3.08;;
41394;SDS011;27136;53.810;8.886;2022-07-29T07:03:42;6.03;;;2.92;;
41394;SDS011;27136;53.810;8.886;2022-07-29T07:06:08;8.65;;;3.05;;
41394;SDS011;27136;53.810;8.886;2022-07-29T07:08:33;4.97;;;2.78;;
41394;SDS011;27136;53.810;8.886;2022-07-29T07:10:59;4.80;;;2.67;;
41394;SDS011;27136;53.810;8.886;2022-07-29T07:13:25;6.50;;;2.80;;
41394;SDS011;27136;53.810;8.886;2022-07-29T07:15:50;6.15;;;2.55;;
41394;SDS011;27136;53.810;8.886;2022-07-29T07:18:17;5.70;;;2.22;;
41394;SDS011;27136;53.810;8.886;2022-07-29T07:20:43;6.10;;;2.50;;
41394;SDS011;27136;53.810;8.886;2022-07-29T07:23:09;5.00;;;2.45;;
41394;SDS011;27136;53.810;8.886;2022-07-29T07:25:36;7.07;;;2.83;;
41394;SDS011;27136;53.810;8.886;2022-07-29T07:28:01;4.88;;;2.88;;
41394;SDS011;27136;53.810;8.886;2022-07-29T07:30:28;8.35;;;3.10;;
41394;SDS011;27136;53.810;8.886;2022-07-29T07:32:54;5.25;;;2.25;;
41394;SDS011;27136;53.810;8.886;2022-07-29T07:35:20;5.63;;;2.67;;
41394;SDS011;27136;53.810;8.886;2022-07-29T07:37:46;7.95;;;2.75;;
41394;SDS011;27136;53.810;8.886;2022-07-29T07:40:12;6.63;;;2.97;;
41394;SDS011;27136;53.810;8.886;2022-07-29T07:42:38;5.50;;;2.88;;
41394;SDS011;27136;53.810;8.886;2022-07-29T07:45:04;6.15;;;3.00;;
41394;SDS011;27136;53.810;8.886;2022-07-29T07:47:31;5.32;;;3.17;;
41394;SDS011;27136;53.810;8.886;2022-07-29T07:49:57;5.85;;;2.85;;
41394;SDS011;27136;53.810;8.886;2022-07-29T07:52:23;9.75;;;2.75;;
41394;SDS011;27136;53.810;8.886;2022-07-29T07:54:49;5.40;;;2.70;;
41394;SDS011;27136;53.810;8.886;2022-07-29T07:57:15;5.32;;;2.80;;
41394;SDS011;27136;53.810;8.886;2022-07-29T07:59:40;4.82;;;2.20;;
41394;SDS011;27136;53.810;8.886;2022-07-29T08:02:06;5.45;;;3.05;;
41394;SDS011;27136;53.810;8.886;2022-07-29T08:04:32;3.90;;;2.70;;
41394;SDS011;27136;53.810;8.886;2022-07-29T08:06:58;6.00;;;2.50;;
41394;SDS011;27136;53.810;8.886;2022-07-29T08:09:26;4.13;;;2.67;;
41394;SDS011;27136;53.810;8.886;2022-07-29T08:11:52;6.03;;;2.70;;
41394;SDS011;27136;53.810;8.886;2022-07-29T08:14:18;6.53;;;2.33;;
41394;SDS011;27136;53.810;8.886;2022-07-29T08:16:44;4.10;;;2.45;;
41394;SDS011;27136;53.810;8.886;2022-07-29T08:19:09;5.97;;;3.03;;
41394;SDS011;27136;53.810;8.886;2022-07-29T08:21:35;6.03;;;3.13;;
41394;SDS011;27136;53.810;8.886;2022-07-29T08:24:01;4.10;;;2.25;;
41394;SDS011;27136;53.810;8.886;2022-07-29T08:26:46;5.45;;;3.20;;
41394;SDS011;27136;53.810;8.886;2022-07-29T08:29:11;5.40;;;3.00;;
41394;SDS011;27136;53.810;8.886;2022-07-29T08:31:37;3.65;;;2.20;;
41394;SDS011;27136;53.810;8.886;2022-07-29T08:34:04;4.97;;;2.58;;
41394;SDS011;27136;53.810;8.886;2022-07-29T08:36:30;6.07;;;3.25;;
41394;SDS011;27136;53.810;8.886;2022-07-29T08:38:57;5.93;;;3.17;;
41394;SDS011;27136;53.810;8.886;2022-07-29T08:41:23;5.90;;;2.92;;
41394;SDS011;27136;53.810;8.886;2022-07-29T08:43:49;8.38;;;3.10;;
41394;SDS011;27136;53.810;8.886;2022-07-29T08:46:16;3.88;;;2.53;;
41394;SDS011;27136;53.810;8.886;2022-07-29T08:48:42;4.95;;;2.67;;
41394;SDS011;27136;53.810;8.886;2022-07-29T08:51:08;6.28;;;2.40;;
41394;SDS011;27136;53.810;8.886;2022-07-29T08:53:40;4.45;;;2.50;;
41394;SDS011;27136;53.810;8.886;2022-07-29T08:56:07;5.03;;;2.90;;
41394;SDS011;27136;53.810;8.886;2022-07-29T08:58:37;8.23;;;2.78;;
41394;SDS011;27136;53.810;8.886;2022-07-29T09:01:03;4.68;;;2.67;;
41394;SDS011;27136;53.810;8.886;2022-07-29T09:03:30;5.47;;;2.72;;
41394;SDS011;27136;53.810;8.886;2022-07-29T09:05:57;5.40;;;2.30;;
41394;SDS011;27136;53.810;8.886;2022-07-29T09:08:24;6.30;;;2.77;;
41394;SDS011;27136;53.810;8.886;2022-07-29T09:10:50;6.63;;;2.80;;
41394;SDS011;27136;53.810;8.886;2022-07-29T09:13:16;4.50;;;2.85;;
41394;SDS011;27136;53.810;8.886;2022-07-29T09:15:43;3.78;;;2.38;;
41394;SDS011;27136;53.810;8.886;2022-07-29T09:18:09;6.03;;;2.60;;
41394;SDS011;27136;53.810;8.886;2022-07-29T09:20:35;7.65;;;2.90;;
41394;SDS011;27136;53.810;8.886;2022-07-29T09:23:19;5.22;;;2.63;;
41394;SDS011;27136;53.810;8.886;2022-07-29T09:25:44;6.10;;;3.05;;
41394;SDS011;27136;53.810;8.886;2022-07-29T09:28:14;6.75;;;3.22;;
41394;SDS011;27136;53.810;8.886;2022-07-29T09:30:54;4.53;;;2.13;;
41394;SDS011;27136;53.810;8.886;2022-07-29T09:33:22;6.70;;;2.78;;
41394;SDS011;27136;53.810;8.886;2022-07-29T09:36:04;4.80;;;2.72;;
41394;SDS011;27136;53.810;8.886;2022-07-29T09:38:31;7.95;;;2.83;;
41394;SDS011;27136;53.810;8.886;2022-07-29T09:40:58;6.97;;;2.95;;
41394;SDS011;27136;53.810;8.886;2022-07-29T09:43:25;5.47;;;2.42;;
41394;SDS011;27136;53.810;8.886;2022-07-29T09:45:51;6.72;;;2.63;;
41394;SDS011;27136;53.810;8.886;2022-07-29T09:48:17;4.25;;;2.28;;
41394;SDS011;27136;53.810;8.886;2022-07-29T09:50:45;5.65;;;3.03;;
41394;SDS011;27136;53.810;8.886;2022-07-29T09:55:59;5.28;;;2.50;;
41394;SDS011;27136;53.810;8.886;2022-07-29T09:58:24;4.53;;;2.53;;
41394;SDS011;27136;53.810;8.886;2022-07-29T10:00:50;4.80;;;2.53;;
41394;SDS011;27136;53.810;8.886;2022-07-29T10:03:17;5.00;;;2.80;;
41394;SDS011;27136;53.810;8.886;2022-07-29T10:05:44;6.35;;;2.70;;
41394;SDS011;27136;53.810;8.886;2022-07-29T10:08:10;4.32;;;2.60;;
41394;SDS011;27136;53.810;8.886;2022-07-29T10:10:40;4.95;;;2.67;;
41394;SDS011;27136;53.810;8.886;2022-07-29T10:13:08;5.85;;;2.70;;
41394;SDS011;27136;53.810;8.886;2022-07-29T10:15:35;4.68;;;2.30;;
41394;SDS011;27136;53.810;8.886;2022-07-29T10:18:04;4.82;;;2.80;;
41394;SDS011;27136;53.810;8.886;2022-07-29T10:20:30;5.28;;;2.60;;
41394;SDS011;27136;53.810;8.886;2022-07-29T10:22:56;6.07;;;2.38;;
41394;SDS011;27136;53.810;8.886;2022-07-29T10:25:22;6.32;;;2.83;;
41394;SDS011;27136;53.810;8.886;2022-07-29T10:27:49;7.18;;;2.58;;
41394;SDS011;27136;53.810;8.886;2022-07-29T10:30:19;5.32;;;2.80;;
41394;SDS011;27136;53.810;8.886;2022-07-29T10:32:58;4.38;;;2.70;;
41394;SDS011;27136;53.810;8.886;2022-07-29T10:44:23;7.28;;;2.80;;
41394;SDS011;27136;53.810;8.886;2022-07-29T10:46:50;5.07;;;2.80;;
41394;SDS011;27136;53.810;8.886;2022-07-29T10:49:17;3.63;;;2.30;;
41394;SDS011;27136;53.810;8.886;2022-07-29T10:51:59;7.15;;;2.75;;
41394;SDS011;27136;53.810;8.886;2022-07-29T10:59:43;4.38;;;2.25;;
41394;SDS011;27136;53.810;8.886;2022-07-29T11:07:24;4.15;;;1.92;;
41394;SDS011;27136;53.810;8.886;2022-07-29T11:15:04;4.50;;;2.00;;
41394;SDS011;27136;53.810;8.886;2022-07-29T11:22:56;8.63;;;2.30;;
41394;SDS011;27136;53.810;8.886;2022-07-29T11:25:22;5.22;;;2.20;;
41394;SDS011;27136;53.810;8.886;2022-07-29T11:27:48;6.38;;;2.97;;
41394;SDS011;27136;53.810;8.886;2022-07-29T11:30:14;5.63;;;2.10;;
41394;SDS011;27136;53.810;8.886;2022-07-29T11:32:43;3.90;;;2.28;;
41394;SDS011;27136;53.810;8.886;2022-07-29T11:35:10;5.20;;;2.20;;
41394;SDS011;27136;53.810;8.886;2022-07-29T11:37:40;3.75;;;1.85;;
41394;SDS011;27136;53.810;8.886;2022-07-29T11:47:28;4.45;;;1.90;;
41394;SDS011;27136;53.810;8.886;2022-07-29T11:49:55;4.13;;;2.25;;
41394;SDS011;27136;53.810;8.886;2022-07-29T11:52:22;5.50;;;2.10;;
41394;SDS011;27136;53.810;8.886;2022-07-29T11:54:49;4.18;;;2.00;;
41394;SDS011;27136;53.810;8.886;2022-07-29T11:57:19;5.75;;;1.60;;
41394;SDS011;27136;53.810;8.886;2022-07-29T11:59:45;4.95;;;1.80;;
41394;SDS011;27136;53.810;8.886;2022-07-29T12:02:12;3.20;;;1.65;;
41394;SDS011;27136;53.810;8.886;2022-07-29T12:07:16;4.78;;;1.98;;
41394;SDS011;27136;53.810;8.886;2022-07-29T12:09:51;4.85;;;1.98;;
41394;SDS011;27136;53.810;8.886;2022-07-29T12:12:18;3.45;;;1.88;;
41394;SDS011;27136;53.810;8.886;2022-07-29T12:14:44;5.05;;;2.28;;
41394;SDS011;27136;53.810;8.886;2022-07-29T12:19:52;6.85;;;1.73;;
41394;SDS011;27136;53.810;8.886;2022-07-29T12:22:37;3.33;;;1.95;;
41394;SDS011;27136;53.810;8.886;2022-07-29T12:27:32;4.55;;;2.20;;
41394;SDS011;27136;53.810;8.886;2022-07-29T12:29:59;5.43;;;1.92;;
41394;SDS011;27136;53.810;8.886;2022-07-29T12:32:38;5.40;;;1.98;;
41394;SDS011;27136;53.810;8.886;2022-07-29T12:37:44;4.47;;;1.95;;
41394;SDS011;27136;53.810;8.886;2022-07-29T12:40:13;5.30;;;1.70;;
41394;SDS011;27136;53.810;8.886;2022-07-29T12:42:41;4.97;;;1.92;;
41394;SDS011;27136;53.810;8.886;2022-07-29T12:45:29;3.08;;;1.83;;
41394;SDS011;27136;53.810;8.886;2022-07-29T12:47:56;8.38;;;3.00;;
41394;SDS011;27136;53.810;8.886;2022-07-29T12:50:22;4.07;;;1.50;;
41394;SDS011;27136;53.810;8.886;2022-07-29T12:52:47;7.38;;;2.20;;
41394;SDS011;27136;53.810;8.886;2022-07-29T12:55:13;8.20;;;2.10;;
41394;SDS011;27136;53.810;8.886;2022-07-29T13:00:12;5.50;;;1.88;;
41394;SDS011;27136;53.810;8.886;2022-07-29T13:02:39;3.75;;;2.05;;
41394;SDS011;27136;53.810;8.886;2022-07-29T13:05:06;4.70;;;1.83;;
41394;SDS011;27136;53.810;8.886;2022-07-29T13:07:34;6.55;;;1.80;;
41394;SDS011;27136;53.810;8.886;2022-07-29T13:12:37;6.05;;;1.90;;
41394;SDS011;27136;53.810;8.886;2022-07-29T13:15:15;4.70;;;1.92;;
41394;SDS011;27136;53.810;8.886;2022-07-29T13:17:42;7.35;;;2.50;;
41394;SDS011;27136;53.810;8.886;2022-07-29T13:20:09;4.70;;;1.85;;
41394;SDS011;27136;53.810;8.886;2022-07-29T13:22:42;3.50;;;1.80;;
41394;SDS011;27136;53.810;8.886;2022-07-29T13:25:12;4.32;;;1.85;;
41394;SDS011;27136;53.810;8.886;2022-07-29T13:27:38;5.95;;;2.20;;
41394;SDS011;27136;53.810;8.886;2022-07-29T13:30:09;4.68;;;1.80;;
41394;SDS011;27136;53.810;8.886;2022-07-29T13:32:35;5.05;;;2.10;;
41394;SDS011;27136;53.810;8.886;2022-07-29T13:35:04;3.28;;;1.40;;
41394;SDS011;27136;53.810;8.886;2022-07-29T13:37:31;5.28;;;1.80;;
41394;SDS011;27136;53.810;8.886;2022-07-29T13:39:59;3.22;;;1.40;;
41394;SDS011;27136;53.810;8.886;2022-07-29T13:42:27;5.53;;;1.92;;
41394;SDS011;27136;53.810;8.886;2022-07-29T13:44:53;3.88;;;1.55;;
41394;SDS011;27136;53.810;8.886;2022-07-29T13:47:19;2.75;;;1.40;;
41394;SDS011;27136;53.810;8.886;2022-07-29T13:49:45;4.20;;;2.13;;
41394;SDS011;27136;53.810;8.886;2022-07-29T13:52:11;7.05;;;1.70;;
41394;SDS011;27136;53.810;8.886;2022-07-29T13:54:36;3.50;;;1.92;;
41394;SDS011;27136;53.810;8.886;2022-07-29T13:57:03;4.00;;;1.30;;
41394;SDS011;27136;53.810;8.886;2022-07-29T13:59:29;2.55;;;1.67;;
41394;SDS011;27136;53.810;8.886;2022-07-29T14:01:55;3.25;;;1.70;;
41394;SDS011;27136;53.810;8.886;2022-07-29T14:04:20;3.88;;;1.55;;
41394;SDS011;27136;53.810;8.886;2022-07-29T14:06:47;3.77;;;1.57;;
41394;SDS011;27136;53.810;8.886;2022-07-29T14:09:13;4.10;;;1.60;;
41394;SDS011;27136;53.810;8.886;2022-07-29T14:11:39;4.22;;;1.30;;
41394;SDS011;27136;53.810;8.886;2022-07-29T14:14:05;4.00;;;1.45;;
41394;SDS011;27136;53.810;8.886;2022-07-29T14:16:30;4.25;;;1.40;;
41394;SDS011;27136;53.810;8.886;2022-07-29T14:18:56;3.00;;;1.40;;
41394;SDS011;27136;53.810;8.886;2022-07-29T14:21:22;3.25;;;1.42;;
41394;SDS011;27136;53.810;8.886;2022-07-29T14:23:47;4.85;;;1.63;;
41394;SDS011;27136;53.810;8.886;2022-07-29T14:26:13;2.75;;;1.65;;
41394;SDS011;27136;53.810;8.886;2022-07-29T14:28:39;3.72;;;1.23;;
41394;SDS011;27136;53.810;8.886;2022-07-29T14:31:04;2.90;;;1.60;;
41394;SDS011;27136;53.810;8.886;2022-07-29T14:33:30;2.60;;;1.48;;
41394;SDS011;27136;53.810;8.886;2022-07-29T14:35:55;2.95;;;1.40;;
41394;SDS011;27136;53.810;8.886;2022-07-29T14:38:21;2.85;;;1.50;;
41394;SDS011;27136;53.810;8.886;2022-07-29T14:40:46;3.42;;;1.58;;
41394;SDS011;27136;53.810;8.886;2022-07-29T14:43:12;4.57;;;1.48;;
41394;SDS011;27136;53.810;8.886;2022-07-29T14:45:39;3.03;;;1.60;;
41394;SDS011;27136;53.810;8.886;2022-07-29T14:48:05;4.90;;;1.52;;
41394;SDS011;27136;53.810;8.886;2022-07-29T14:50:31;2.53;;;1.73;;
41394;SDS011;27136;53.810;8.886;2022-07-29T14:52:56;2.08;;;1.25;;
41394;SDS011;27136;53.810;8.886;2022-07-29T14:55:22;2.97;;;1.60;;
41394;SDS011;27136;53.810;8.886;2022-07-29T14:57:48;4.45;;;1.50;;
41394;SDS011;27136;53.810;8.886;2022-07-29T15:00:14;3.28;;;1.42;;
41394;SDS011;27136;53.810;8.886;2022-07-29T15:02:41;3.17;;;1.33;;
41394;SDS011;27136;53.810;8.886;2022-07-29T15:05:06;4.07;;;1.88;;
41394;SDS011;27136;53.810;8.886;2022-07-29T15:07:32;3.25;;;1.50;;
41394;SDS011;27136;53.810;8.886;2022-07-29T15:09:58;4.13;;;1.67;;
41394;SDS011;27136;53.810;8.886;2022-07-29T15:12:23;4.00;;;1.60;;
41394;SDS011;27136;53.810;8.886;2022-07-29T15:14:49;4.32;;;1.65;;
41394;SDS011;27136;53.810;8.886;2022-07-29T15:17:14;8.05;;;1.98;;
41394;SDS011;27136;53.810;8.886;2022-07-29T15:19:40;2.15;;;1.50;;
41394;SDS011;27136;53.810;8.886;2022-07-29T15:22:05;3.60;;;1.60;;
41394;SDS011;27136;53.810;8.886;2022-07-29T15:24:31;2.28;;;1.23;;
41394;SDS011;27136;53.810;8.886;2022-07-29T15:26:56;2.58;;;1.50;;
41394;SDS011;27136;53.810;8.886;2022-07-29T15:29:22;4.68;;;1.88;;
41394;SDS011;27136;53.810;8.886;2022-07-29T15:31:48;3.00;;;2.38;;
41394;SDS011;27136;53.810;8.886;2022-07-29T15:34:13;6.55;;;4.45;;
41394;SDS011;27136;53.810;8.886;2022-07-29T15:36:39;4.57;;;2.35;;
41394;SDS011;27136;53.810;8.886;2022-07-29T15:39:05;4.18;;;1.65;;
41394;SDS011;27136;53.810;8.886;2022-07-29T15:41:30;5.10;;;1.55;;
41394;SDS011;27136;53.810;8.886;2022-07-29T15:43:56;4.85;;;1.35;;
41394;SDS011;27136;53.810;8.886;2022-07-29T15:46:22;4.30;;;1.60;;
41394;SDS011;27136;53.810;8.886;2022-07-29T15:49:06;2.47;;;1.48;;
41394;SDS011;27136;53.810;8.886;2022-07-29T15:51:32;4.30;;;1.42;;
41394;SDS011;27136;53.810;8.886;2022-07-29T15:53:57;4.30;;;1.77;;
41394;SDS011;27136;53.810;8.886;2022-07-29T15:56:25;3.23;;;1.57;;
41394;SDS011;27136;53.810;8.886;2022-07-29T15:58:50;3.38;;;1.40;;
41394;SDS011;27136;53.810;8.886;2022-07-29T16:01:16;3.47;;;1.60;;
41394;SDS011;27136;53.810;8.886;2022-07-29T16:03:42;2.63;;;1.30;;